Time;durP1;ratioP1;P1;durP2;ratioP2;P2;SDS_P1;SDS_P2;PMS_P1;PMS_P2;Temp;Humidity;BMP_temperature;BMP_pressure;BME280_temperature;BME280_humidity;BME280_pressure;Samples;Min_cycle;Max_cycle;Signal;HPM_P1;HPM_P2
2023/03/12 00:00:21;;;;;;;76.30;10.50;;;9.70;99.90;;;;;;5052231;28;20539;-58
2023/03/12 00:02:46;;;;;;;85.93;11.00;;;9.60;99.90;;;;;;5053196;28;20173;-58
2023/03/12 00:05:12;;;;;;;99.97;12.63;;;9.30;99.90;;;;;;5053353;28;20188;-58
2023/03/12 00:07:38;;;;;;;90.07;11.87;;;9.80;99.90;;;;;;5053070;28;20586;-59
2023/03/12 00:10:05;;;;;;;87.67;10.13;;;11.40;99.90;;;;;;5052985;28;20627;-58
2023/03/12 00:12:31;;;;;;;80.83;11.70;;;9.90;99.90;;;;;;5052989;28;20178;-58
2023/03/12 00:14:57;;;;;;;82.53;11.37;;;9.70;99.90;;;;;;5052866;28;20577;-58
2023/03/12 00:17:22;;;;;;;74.97;10.63;;;10.00;99.90;;;;;;5052924;28;20640;-58
2023/03/12 00:19:52;;;;;;;87.93;11.33;;;9.70;99.90;;;;;;5034989;28;20269;-58
2023/03/12 00:22:21;;;;;;;90.07;11.83;;;;;;;;;;5052847;28;20631;-58
2023/03/12 00:24:50;;;;;;;90.87;12.17;;;10.00;99.90;;;;;;5053228;28;20558;-58
2023/03/12 00:27:16;;;;;;;83.47;11.07;;;9.70;99.90;;;;;;5052693;28;20200;-58
2023/03/12 00:29:41;;;;;;;71.87;9.90;;;9.60;99.90;;;;;;5052824;28;20201;-58
2023/03/12 00:32:07;;;;;;;72.83;10.63;;;9.60;99.90;;;;;;5052679;28;20165;-58
2023/03/12 00:34:33;;;;;;;82.30;10.83;;;9.70;99.90;;;;;;5052547;28;20174;-58
2023/03/12 00:36:58;;;;;;;79.90;11.17;;;9.50;99.90;;;;;;5052524;28;20521;-58
2023/03/12 00:39:24;;;;;;;73.80;10.40;;;9.70;99.90;;;;;;5052442;28;20628;-58
2023/03/12 00:41:49;;;;;;;90.87;12.27;;;9.60;99.90;;;;;;5034676;28;20170;-59
2023/03/12 00:44:15;;;;;;;81.57;11.67;;;9.50;99.90;;;;;;5052497;28;20644;-58
2023/03/12 00:46:41;;;;;;;72.87;10.50;;;9.50;99.90;;;;;;5052412;28;20165;-58
2023/03/12 00:49:06;;;;;;;97.20;12.07;;;9.70;99.90;;;;;;5052426;28;20192;-58
2023/03/12 00:51:32;;;;;;;77.93;10.47;;;10.00;99.90;;;;;;5052334;28;20188;-58
2023/03/12 00:53:57;;;;;;;96.37;11.67;;;9.20;99.90;;;;;;5052274;28;20272;-58
2023/03/12 00:56:23;;;;;;;79.87;11.47;;;9.70;99.90;;;;;;5052150;28;20667;-59
2023/03/12 00:58:49;;;;;;;93.90;11.00;;;9.80;99.90;;;;;;5052059;28;20177;-59
2023/03/12 01:01:14;;;;;;;93.33;11.27;;;9.60;99.90;;;;;;5052165;28;20170;-58
2023/03/12 01:03:40;;;;;;;79.50;11.57;;;9.50;99.90;;;;;;5052112;28;20170;-58
2023/03/12 01:06:06;;;;;;;80.57;10.23;;;10.10;99.90;;;;;;5052099;28;20264;-58
2023/03/12 01:08:31;;;;;;;75.60;10.73;;;9.80;99.90;;;;;;5052078;28;20510;-59
2023/03/12 01:10:57;;;;;;;84.27;11.13;;;9.80;99.90;;;;;;5051703;28;20699;-58
2023/03/12 01:13:23;;;;;;;87.90;11.07;;;9.60;99.90;;;;;;5051721;28;20552;-59
2023/03/12 01:15:48;;;;;;;89.33;12.17;;;9.70;99.90;;;;;;5051740;28;20208;-58
2023/03/12 01:18:14;;;;;;;94.60;10.93;;;9.70;99.90;;;;;;5051736;28;20465;-58
2023/03/12 01:20:40;;;;;;;85.73;11.53;;;9.60;99.90;;;;;;5033924;28;20173;-58
2023/03/12 01:23:05;;;;;;;88.97;11.03;;;9.30;99.90;;;;;;5051699;28;20260;-59
2023/03/12 01:25:32;;;;;;;87.73;12.13;;;9.70;99.90;;;;;;5051735;28;20212;-58
2023/03/12 01:27:59;;;;;;;90.80;12.30;;;9.50;99.90;;;;;;5033747;28;20178;-58
2023/03/12 01:30:24;;;;;;;98.83;11.77;;;9.50;99.90;;;;;;5051613;28;20238;-58
2023/03/12 01:32:53;;;;;;;92.10;10.93;;;9.50;99.90;;;;;;5051567;28;20200;-58
2023/03/12 01:35:19;;;;;;;80.37;11.30;;;9.40;99.90;;;;;;5051336;28;20205;-58
2023/03/12 01:37:45;;;;;;;89.00;11.67;;;11.50;99.90;;;;;;5051556;28;20176;-59
2023/03/12 01:40:15;;;;;;;93.10;11.30;;;9.40;99.90;;;;;;5051516;28;20165;-58
2023/03/12 01:42:41;;;;;;;81.50;11.23;;;9.20;99.90;;;;;;5051385;28;20204;-58
2023/03/12 01:45:45;;;;;;;77.93;11.60;;;9.40;99.90;;;;;;5051371;28;20208;-59
2023/03/12 01:48:11;;;;;;;81.53;12.33;;;9.30;99.90;;;;;;5033283;28;20187;-58
2023/03/12 01:50:37;;;;;;;91.13;12.63;;;9.30;99.90;;;;;;5051172;28;20280;-59
2023/03/12 01:53:03;;;;;;;78.57;10.60;;;9.60;99.90;;;;;;5051244;28;20176;-58
2023/03/12 01:55:29;;;;;;;84.40;10.77;;;9.30;99.90;;;;;;5051131;28;20354;-58
2023/03/12 01:57:57;;;;;;;86.07;11.17;;;9.60;99.90;;;;;;5051003;28;20553;-58
2023/03/12 02:00:25;;;;;;;87.93;11.60;;;9.40;99.90;;;;;;5051036;28;20161;-58
2023/03/12 02:02:55;;;;;;;88.93;11.63;;;9.70;99.90;;;;;;5051081;28;20178;-58
2023/03/12 02:05:47;;;;;;;79.87;10.27;;;9.40;99.90;;;;;;5051163;28;20177;-58
2023/03/12 02:08:14;;;;;;;74.07;11.10;;;9.30;99.90;;;;;;5050957;28;20161;-59
2023/03/12 02:10:40;;;;;;;81.67;11.33;;;9.20;99.90;;;;;;5050778;28;20236;-58
2023/03/12 02:13:06;;;;;;;82.40;11.33;;;9.20;99.90;;;;;;5050992;28;20679;-58
2023/03/12 02:15:36;;;;;;;90.27;10.87;;;9.30;99.90;;;;;;5050805;28;20209;-58
2023/03/12 02:18:03;;;;;;;80.93;10.77;;;9.60;99.90;;;;;;5051062;28;20201;-58
2023/03/12 02:20:45;;;;;;;81.17;10.33;;;9.70;99.90;;;;;;5050941;28;20184;-58
2023/03/12 02:23:15;;;;;;;85.10;11.07;;;9.30;99.90;;;;;;5051990;28;20687;-59
2023/03/12 02:25:48;;;;;;;85.10;11.10;;;9.50;99.90;;;;;;5057603;28;20177;-58
2023/03/12 02:28:16;;;;;;;81.03;11.13;;;9.60;99.90;;;;;;5057407;28;20215;-58
2023/03/12 02:30:45;;;;;;;70.37;9.87;;;9.40;99.90;;;;;;5057648;28;20188;-58
2023/03/12 02:33:11;;;;;;;82.37;10.70;;;9.40;99.90;;;;;;5057412;28;20196;-58
2023/03/12 02:35:37;;;;;;;81.23;10.17;;;9.40;99.90;;;;;;5057321;28;20209;-58
2023/03/12 02:38:23;;;;;;;86.00;10.00;;;9.40;99.90;;;;;;5057429;28;20169;-58
2023/03/12 02:40:50;;;;;;;87.97;10.73;;;9.00;99.90;;;;;;5057151;28;20620;-58
2023/03/12 02:43:19;;;;;;;90.10;12.50;;;8.90;99.90;;;;;;5057527;28;20191;-58
2023/03/12 02:45:44;;;;;;;82.70;10.77;;;9.20;99.90;;;;;;5057315;28;20227;-58
2023/03/12 02:48:10;;;;;;;89.97;11.63;;;9.30;99.90;;;;;;5057369;28;20173;-59
2023/03/12 02:50:36;;;;;;;83.47;10.23;;;9.30;99.90;;;;;;5057383;28;20183;-58
2023/03/12 02:53:01;;;;;;;71.13;10.10;;;8.90;99.90;;;;;;5057323;28;20655;-58
2023/03/12 02:55:27;;;;;;;77.63;10.13;;;9.10;99.90;;;;;;5057169;28;20279;-59
2023/03/12 02:57:52;;;;;;;72.60;9.13;;;9.00;99.90;;;;;;5057236;28;20205;-58
2023/03/12 03:00:18;;;;;;;67.07;9.20;;;9.30;99.90;;;;;;5057315;28;20932;-59
2023/03/12 03:02:44;;;;;;;76.33;10.53;;;9.30;99.90;;;;;;5057084;28;20173;-59
2023/03/12 03:05:11;;;;;;;81.87;11.17;;;8.50;99.90;;;;;;5057157;28;20219;-59
2023/03/12 03:07:36;;;;;;;72.73;10.90;;;9.10;99.90;;;;;;5057100;28;20226;-59
2023/03/12 03:10:03;;;;;;;71.10;9.07;;;9.50;99.90;;;;;;5057230;28;20631;-58
2023/03/12 03:12:30;;;;;;;103.20;11.47;;;9.20;99.90;;;;;;5057310;28;20169;-58
2023/03/12 03:14:56;;;;;;;69.10;10.93;;;9.60;99.90;;;;;;5056974;28;20199;-59
2023/03/12 03:17:23;;;;;;;86.93;11.73;;;9.20;99.90;;;;;;5057178;28;20208;-59
2023/03/12 03:19:50;;;;;;;92.80;11.03;;;9.20;99.90;;;;;;5057145;28;20170;-58
2023/03/12 03:22:15;;;;;;;75.20;11.30;;;9.30;99.90;;;;;;5057076;28;20185;-58
2023/03/12 03:24:41;;;;;;;78.67;10.00;;;9.40;99.90;;;;;;5057028;28;20174;-58
2023/03/12 03:27:07;;;;;;;81.33;11.30;;;9.10;99.90;;;;;;5056821;28;20177;-58
2023/03/12 03:29:32;;;;;;;79.07;9.73;;;9.30;99.90;;;;;;5057014;28;20267;-58
2023/03/12 03:31:58;;;;;;;90.83;10.63;;;;;;;;;;5056941;28;20174;-58
2023/03/12 03:34:24;;;;;;;74.37;10.23;;;9.40;99.90;;;;;;5056553;28;20674;-58
2023/03/12 03:36:50;;;;;;;82.00;10.27;;;;;;;;;;5053628;28;20201;-58
2023/03/12 03:39:16;;;;;;;69.47;9.60;;;9.30;99.90;;;;;;5053791;28;20231;-58
2023/03/12 03:41:41;;;;;;;86.00;10.53;;;9.30;99.90;;;;;;5053659;28;20640;-59
2023/03/12 03:44:07;;;;;;;81.80;11.33;;;9.20;99.90;;;;;;5053537;28;20173;-58
2023/03/12 03:46:34;;;;;;;71.10;9.37;;;9.20;99.90;;;;;;5053681;28;20219;-59
2023/03/12 03:49:00;;;;;;;76.57;10.00;;;8.80;99.90;;;;;;5053582;28;20207;-58
2023/03/12 03:51:26;;;;;;;91.27;11.40;;;9.40;99.90;;;;;;5053473;28;20193;-58
2023/03/12 03:53:52;;;;;;;67.70;9.40;;;9.10;99.90;;;;;;5053359;28;20173;-58
2023/03/12 03:56:18;;;;;;;73.40;9.90;;;9.30;99.90;;;;;;5053367;28;20552;-58
2023/03/12 03:58:44;;;;;;;78.93;10.57;;;9.20;99.90;;;;;;5053366;28;20161;-58
2023/03/12 04:01:11;;;;;;;78.03;9.97;;;9.20;99.90;;;;;;5053347;28;20166;-58
2023/03/12 04:03:37;;;;;;;83.00;10.47;;;;;;;;;;5053295;28;20161;-59
2023/03/12 04:06:04;;;;;;;81.83;9.33;;;9.30;99.90;;;;;;5053089;28;20674;-59
2023/03/12 04:08:31;;;;;;;71.13;10.63;;;9.20;99.90;;;;;;5053028;28;20165;-59
2023/03/12 04:10:57;;;;;;;84.60;10.47;;;9.30;99.90;;;;;;5052880;28;20228;-59
2023/03/12 04:13:23;;;;;;;75.23;10.13;;;8.80;99.90;;;;;;5053095;28;20647;-58
2023/03/12 04:15:52;;;;;;;70.53;10.07;;;8.90;99.90;;;;;;5052897;28;20213;-58
2023/03/12 04:18:18;;;;;;;75.03;10.40;;;9.50;99.90;;;;;;5052979;28;20169;-59
2023/03/12 04:20:44;;;;;;;53.37;7.80;;;9.20;99.90;;;;;;5052996;28;20162;-58
2023/03/12 04:23:10;;;;;;;67.53;8.97;;;9.60;99.90;;;;;;5052888;28;20188;-59
2023/03/12 04:25:36;;;;;;;68.97;8.50;;;9.10;99.90;;;;;;5053048;28;20180;-58
2023/03/12 04:28:02;;;;;;;67.00;8.63;;;9.30;99.90;;;;;;5052777;28;20176;-58
2023/03/12 04:30:28;;;;;;;71.70;9.30;;;9.40;99.90;;;;;;5052670;28;20178;-58
2023/03/12 04:32:54;;;;;;;63.23;8.87;;;9.50;99.90;;;;;;5052773;28;20181;-58
2023/03/12 04:35:19;;;;;;;64.37;8.50;;;9.60;99.90;;;;;;5034674;28;20216;-58
2023/03/12 04:37:45;;;;;;;69.73;8.90;;;9.30;99.90;;;;;;5052740;28;20208;-59
2023/03/12 04:40:12;;;;;;;74.60;9.33;;;9.30;99.90;;;;;;5052683;28;20534;-58
2023/03/12 04:42:38;;;;;;;62.27;9.27;;;;;;;;;;5052555;28;20256;-58
2023/03/12 04:45:05;;;;;;;68.63;8.57;;;9.30;99.90;;;;;;5052863;28;20248;-59
2023/03/12 04:47:33;;;;;;;78.40;9.47;;;10.60;99.90;;;;;;5051901;28;20640;-59
2023/03/12 04:49:59;;;;;;;70.93;9.00;;;9.00;99.90;;;;;;5052403;28;20173;-58
2023/03/12 04:52:25;;;;;;;72.87;8.93;;;9.10;99.90;;;;;;5052473;28;20180;-59
2023/03/12 04:54:52;;;;;;;60.63;7.83;;;8.00;99.90;;;;;;5052299;28;20197;-58
2023/03/12 04:57:18;;;;;;;73.13;9.83;;;9.20;99.90;;;;;;5052156;28;20221;-58
2023/03/12 04:59:43;;;;;;;59.20;8.20;;;9.70;99.90;;;;;;5052285;28;20589;-59
2023/03/12 05:02:09;;;;;;;61.63;8.17;;;9.30;99.90;;;;;;5052213;28;20646;-58
2023/03/12 05:04:35;;;;;;;71.37;9.53;;;9.10;99.90;;;;;;5052040;28;20185;-59
2023/03/12 05:07:00;;;;;;;68.00;9.20;;;9.40;99.90;;;;;;5034248;28;20273;-59
2023/03/12 05:09:26;;;;;;;76.13;9.27;;;9.30;99.90;;;;;;5052035;28;20173;-59
2023/03/12 05:11:52;;;;;;;86.13;10.77;;;9.40;99.90;;;;;;5051854;28;20225;-59
2023/03/12 05:14:17;;;;;;;73.27;8.63;;;8.40;99.90;;;;;;5051903;28;20176;-59
2023/03/12 05:16:43;;;;;;;76.60;9.30;;;8.80;99.90;;;;;;5051772;28;20255;-59
2023/03/12 05:19:08;;;;;;;71.53;9.37;;;9.20;99.90;;;;;;5051782;28;20173;-58
2023/03/12 05:21:34;;;;;;;71.13;8.87;;;9.20;99.90;;;;;;5051951;28;20243;-59
2023/03/12 05:24:00;;;;;;;69.90;8.47;;;9.40;99.90;;;;;;5051707;28;20174;-59
2023/03/12 05:26:31;;;;;;;65.73;8.50;;;9.40;99.90;;;;;;5033823;28;20211;-58
2023/03/12 05:29:01;;;;;;;69.33;9.57;;;9.10;99.90;;;;;;5051728;28;20226;-58
2023/03/12 05:31:31;;;;;;;69.37;7.97;;;9.20;99.90;;;;;;5051537;28;20173;-58
2023/03/12 05:33:57;;;;;;;58.93;8.07;;;9.20;99.90;;;;;;5051522;28;20181;-59
2023/03/12 05:36:23;;;;;;;59.03;8.33;;;9.30;99.90;;;;;;5051461;28;20212;-59
2023/03/12 05:38:48;;;;;;;60.63;8.13;;;9.30;99.90;;;;;;5051550;28;20173;-58
2023/03/12 05:41:22;;;;;;;59.60;8.00;;;9.20;99.90;;;;;;5051433;28;20165;-58
2023/03/12 05:43:47;;;;;;;70.47;8.57;;;9.00;99.90;;;;;;5051465;28;20666;-59
2023/03/12 05:46:14;;;;;;;65.10;9.03;;;9.30;99.90;;;;;;5051363;28;20201;-59
2023/03/12 05:48:39;;;;;;;56.97;7.90;;;9.20;99.90;;;;;;5051342;28;20169;-59
2023/03/12 05:51:05;;;;;;;69.80;8.40;;;9.20;99.90;;;;;;5051264;28;20654;-58
2023/03/12 05:53:31;;;;;;;67.63;7.53;;;9.20;99.90;;;;;;5051231;28;20175;-59
2023/03/12 05:56:02;;;;;;;68.43;8.33;;;9.20;99.90;;;;;;5051051;28;20217;-59
2023/03/12 05:58:28;;;;;;;68.10;8.13;;;9.20;99.90;;;;;;5050389;28;20170;-59
2023/03/12 06:00:53;;;;;;;62.13;8.17;;;9.20;99.90;;;;;;5051179;28;20181;-59
2023/03/12 06:03:19;;;;;;;63.83;8.47;;;10.20;99.90;;;;;;5051082;28;20173;-59
2023/03/12 06:05:46;;;;;;;75.40;10.23;;;11.50;99.90;;;;;;5051084;28;20244;-58
2023/03/12 06:08:12;;;;;;;71.23;8.00;;;9.30;99.90;;;;;;5051099;28;20264;-58
2023/03/12 06:10:38;;;;;;;54.67;7.70;;;9.40;99.90;;;;;;5051015;28;20603;-58
2023/03/12 06:13:04;;;;;;;67.13;8.07;;;11.70;99.90;;;;;;5033094;28;20268;-58
2023/03/12 06:15:30;;;;;;;58.60;6.23;;;9.10;99.90;;;;;;5051035;28;20326;-58
2023/03/12 06:17:56;;;;;;;52.23;6.87;;;8.90;99.90;;;;;;5050851;28;20201;-59
2023/03/12 06:20:22;;;;;;;55.83;7.17;;;9.40;99.90;;;;;;5050957;28;20208;-58
2023/03/12 06:22:48;;;;;;;58.83;7.53;;;9.00;99.90;;;;;;5033080;28;20188;-58
2023/03/12 06:25:13;;;;;;;63.43;7.17;;;7.70;99.90;;;;;;5050893;28;20635;-58
2023/03/12 06:27:39;;;;;;;55.20;6.87;;;9.20;99.90;;;;;;5050800;28;20180;-58
2023/03/12 06:30:06;;;;;;;38.40;5.93;;;9.20;99.90;;;;;;5050866;28;20161;-58
2023/03/12 06:32:32;;;;;;;47.20;6.37;;;9.30;99.90;;;;;;5050798;28;20181;-58
2023/03/12 06:34:59;;;;;;;45.03;5.90;;;;;;;;;;5050809;28;20524;-58
2023/03/12 06:37:25;;;;;;;52.23;6.80;;;9.20;99.90;;;;;;5050712;28;20208;-58
2023/03/12 06:39:51;;;;;;;44.90;5.70;;;9.40;99.90;;;;;;5050871;28;20204;-58
2023/03/12 06:42:18;;;;;;;53.97;7.00;;;9.20;99.90;;;;;;5050565;28;20208;-59
2023/03/12 06:44:44;;;;;;;49.07;6.77;;;9.50;99.90;;;;;;5051015;28;20177;-59
2023/03/12 06:47:10;;;;;;;43.27;6.40;;;9.10;99.90;;;;;;5050729;28;20562;-58
2023/03/12 06:49:36;;;;;;;48.23;6.80;;;9.40;99.90;;;;;;5050676;28;20169;-58
2023/03/12 06:52:02;;;;;;;56.93;7.30;;;8.90;99.90;;;;;;5050715;28;20176;-58
2023/03/12 06:54:28;;;;;;;44.23;5.20;;;9.80;99.90;;;;;;5050548;28;20184;-58
2023/03/12 06:56:53;;;;;;;52.87;5.90;;;9.10;99.90;;;;;;5050999;28;20208;-58
2023/03/12 06:59:20;;;;;;;46.33;6.63;;;9.30;99.90;;;;;;5050632;28;20180;-58
2023/03/12 07:01:46;;;;;;;45.70;6.83;;;9.20;99.90;;;;;;5050483;28;20166;-58
2023/03/12 07:04:13;;;;;;;55.20;7.10;;;9.40;99.90;;;;;;5050647;28;20209;-59
2023/03/12 07:06:38;;;;;;;33.37;5.20;;;9.40;99.90;;;;;;5032646;28;20200;-58
2023/03/12 07:09:04;;;;;;;54.03;7.43;;;8.90;99.90;;;;;;5050456;28;20628;-58
2023/03/12 07:11:30;;;;;;;46.50;7.40;;;9.40;99.90;;;;;;5054008;28;20221;-58
2023/03/12 07:13:56;;;;;;;45.10;7.20;;;9.50;99.90;;;;;;5054239;28;20180;-58
2023/03/12 07:16:22;;;;;;;55.80;7.03;;;9.50;99.90;;;;;;5054158;28;20291;-59
2023/03/12 07:18:48;;;;;;;57.57;7.43;;;;;;;;;;5054104;28;20642;-58
2023/03/12 07:21:21;;;;;;;56.03;7.00;;;9.50;99.90;;;;;;5054026;28;20260;-58
2023/03/12 07:23:47;;;;;;;52.73;7.07;;;9.50;99.90;;;;;;5054007;28;20185;-59
2023/03/12 07:26:13;;;;;;;49.80;6.20;;;10.00;99.90;;;;;;5053932;28;20177;-58
2023/03/12 07:28:39;;;;;;;57.47;7.87;;;9.50;99.90;;;;;;5054020;28;20169;-58
2023/03/12 07:31:05;;;;;;;44.13;6.50;;;9.80;99.90;;;;;;5053946;28;20173;-58
2023/03/12 07:33:31;;;;;;;66.63;7.63;;;9.70;99.90;;;;;;5054004;28;20173;-58
2023/03/12 07:35:56;;;;;;;59.27;6.60;;;9.70;99.90;;;;;;5053836;28;20690;-58
2023/03/12 07:38:22;;;;;;;55.30;8.10;;;9.30;99.90;;;;;;5053751;28;20248;-58
2023/03/12 07:40:55;;;;;;;65.00;7.53;;;9.80;99.90;;;;;;5053702;28;20213;-58
2023/03/12 07:43:22;;;;;;;67.57;7.93;;;9.50;99.90;;;;;;5053609;28;20240;-58
2023/03/12 07:45:48;;;;;;;51.70;7.80;;;9.80;99.90;;;;;;5053648;28;20177;-58
2023/03/12 07:48:14;;;;;;;53.43;7.57;;;9.70;99.90;;;;;;5053663;28;20402;-58
2023/03/12 07:50:40;;;;;;;46.30;5.93;;;9.80;99.90;;;;;;5053413;28;20209;-59
2023/03/12 07:53:06;;;;;;;54.77;7.77;;;9.90;99.90;;;;;;5053367;28;20178;-59
2023/03/12 07:55:33;;;;;;;64.03;7.87;;;10.10;99.90;;;;;;5053366;28;20212;-58
2023/03/12 07:57:59;;;;;;;56.47;7.20;;;10.00;99.90;;;;;;5053418;28;20246;-59
2023/03/12 08:00:26;;;;;;;59.10;8.70;;;10.20;99.90;;;;;;5053465;28;20173;-59
2023/03/12 08:02:52;;;;;;;77.43;9.07;;;10.50;99.90;;;;;;5053152;28;20256;-59
2023/03/12 08:05:18;;;;;;;69.57;8.90;;;9.80;99.90;;;;;;5053265;28;20263;-59
2023/03/12 08:07:44;;;;;;;61.67;8.73;;;10.20;99.90;;;;;;5053146;28;20174;-58
2023/03/12 08:10:11;;;;;;;57.77;8.47;;;10.10;99.90;;;;;;5053039;28;20279;-59
2023/03/12 08:12:36;;;;;;;53.23;7.47;;;9.90;99.90;;;;;;5053137;28;20181;-59
2023/03/12 08:15:07;;;;;;;60.87;8.30;;;10.20;99.90;;;;;;5053096;28;20597;-59
2023/03/12 08:17:33;;;;;;;62.07;8.30;;;10.20;99.90;;;;;;5053148;28;20189;-59
2023/03/12 08:19:59;;;;;;;50.37;7.30;;;10.00;99.90;;;;;;5053002;28;20227;-59
2023/03/12 08:22:24;;;;;;;48.80;7.50;;;10.20;99.90;;;;;;5051910;28;20294;-59
2023/03/12 08:24:50;;;;;;;27.80;3.87;;;10.10;99.90;;;;;;5035270;28;20177;-59
2023/03/12 08:27:15;;;;;;;27.27;3.93;;;9.90;99.90;;;;;;5034829;28;20181;-59
2023/03/12 08:29:41;;;;;;;36.57;5.70;;;10.10;99.90;;;;;;5035213;28;20193;-59
2023/03/12 08:32:09;;;;;;;41.77;5.63;;;10.20;99.90;;;;;;5052757;28;20180;-59
2023/03/12 08:34:35;;;;;;;38.37;5.20;;;10.10;99.90;;;;;;5052774;28;20169;-59
2023/03/12 08:37:01;;;;;;;42.90;5.63;;;10.20;99.90;;;;;;5052637;28;20213;-59
2023/03/12 08:39:28;;;;;;;43.27;5.20;;;10.10;99.90;;;;;;5052580;28;20188;-59
2023/03/12 08:41:54;;;;;;;44.37;6.57;;;9.90;99.90;;;;;;5052802;28;20176;-59
2023/03/12 08:44:21;;;;;;;42.13;5.20;;;10.10;99.90;;;;;;5052562;28;20170;-59
2023/03/12 08:46:46;;;;;;;43.57;6.40;;;10.20;99.90;;;;;;5052495;28;20905;-59
2023/03/12 08:49:12;;;;;;;48.07;5.93;;;10.50;99.90;;;;;;5052395;28;20643;-59
2023/03/12 08:51:38;;;;;;;43.03;6.23;;;10.20;99.90;;;;;;5052555;28;20248;-59
2023/03/12 08:54:04;;;;;;;46.90;6.77;;;10.20;99.90;;;;;;5052247;28;20648;-59
2023/03/12 08:56:30;;;;;;;41.77;5.37;;;10.00;99.90;;;;;;5052272;28;20300;-60
2023/03/12 08:58:57;;;;;;;46.17;6.30;;;10.50;99.90;;;;;;5052266;28;20687;-59
2023/03/12 09:01:23;;;;;;;42.03;5.10;;;10.30;99.90;;;;;;5052265;28;20177;-60
2023/03/12 09:03:51;;;;;;;44.30;6.13;;;10.30;99.90;;;;;;5051995;28;20181;-59
2023/03/12 09:06:18;;;;;;;35.63;5.73;;;10.40;99.90;;;;;;5052118;28;20196;-59
2023/03/12 09:08:45;;;;;;;41.33;5.80;;;11.00;99.90;;;;;;5051867;28;20596;-59
2023/03/12 09:11:12;;;;;;;46.37;5.90;;;10.80;99.90;;;;;;5051969;28;20235;-59
2023/03/12 09:13:39;;;;;;;42.83;5.50;;;10.90;99.90;;;;;;5051825;28;20166;-59
2023/03/12 09:16:05;;;;;;;41.50;5.50;;;10.80;99.90;;;;;;5051719;28;20201;-59
2023/03/12 09:18:32;;;;;;;41.57;6.20;;;10.70;99.90;;;;;;5051610;28;20219;-60
2023/03/12 09:20:57;;;;;;;39.27;5.93;;;11.20;99.90;;;;;;5051702;28;20189;-59
2023/03/12 09:23:24;;;;;;;27.83;4.37;;;10.80;99.90;;;;;;5033842;28;20266;-59
2023/03/12 09:25:51;;;;;;;29.93;4.87;;;11.20;99.90;;;;;;5051732;28;20181;-58
2023/03/12 09:28:17;;;;;;;38.87;4.83;;;11.00;99.90;;;;;;5051728;28;20188;-58
2023/03/12 09:30:43;;;;;;;37.17;5.40;;;11.40;99.90;;;;;;5051645;28;20176;-59
2023/03/12 09:33:09;;;;;;;31.40;5.07;;;12.00;99.90;;;;;;5051392;28;20260;-59
2023/03/12 09:35:35;;;;;;;30.70;5.83;;;11.90;99.90;;;;;;5051548;28;20637;-59
2023/03/12 09:38:01;;;;;;;43.37;5.53;;;11.70;99.90;;;;;;5051530;28;20268;-59
2023/03/12 09:40:29;;;;;;;27.03;4.60;;;11.70;99.90;;;;;;5051439;28;20196;-59
2023/03/12 09:43:17;;;;;;;42.63;5.50;;;11.60;99.90;;;;;;5051398;28;20671;-59
2023/03/12 09:45:45;;;;;;;40.07;6.07;;;11.60;99.90;;;;;;5032841;28;20265;-59
2023/03/12 09:48:33;;;;;;;38.50;5.27;;;11.60;99.90;;;;;;5051429;28;20177;-59
2023/03/12 09:51:02;;;;;;;39.50;5.50;;;11.30;99.90;;;;;;5051342;28;20223;-59
2023/03/12 09:53:39;;;;;;;39.03;6.20;;;11.40;99.90;;;;;;5051271;28;20170;-59
2023/03/12 09:56:12;;;;;;;30.87;4.73;;;11.40;99.90;;;;;;5051120;28;20227;-59
2023/03/12 09:58:38;;;;;;;40.33;5.10;;;11.30;99.90;;;;;;5051188;28;20162;-59
2023/03/12 10:01:07;;;;;;;32.50;5.07;;;11.40;99.90;;;;;;5051182;28;20192;-59
2023/03/12 10:03:57;;;;;;;36.60;4.90;;;11.40;99.90;;;;;;5051187;28;20169;-59
2023/03/12 10:06:28;;;;;;;41.53;5.00;;;11.40;99.90;;;;;;5051032;28;20173;-58
2023/03/12 10:09:20;;;;;;;35.97;5.27;;;11.20;99.90;;;;;;5051064;28;20175;-58
2023/03/12 10:12:20;;;;;;;35.00;5.23;;;11.60;99.90;;;;;;5019778;28;20303;-59
2023/03/12 10:14:52;;;;;;;30.97;4.57;;;11.50;99.90;;;;;;5050922;28;20198;-59
2023/03/12 10:17:45;;;;;;;27.97;4.67;;;11.60;99.90;;;;;;5050942;28;20694;-59
2023/03/12 10:20:26;;;;;;;30.43;4.47;;;11.70;99.90;;;;;;5050910;28;20651;-58
2023/03/12 10:23:10;;;;;;;29.30;4.90;;;11.80;99.90;;;;;;5050938;28;20208;-59
2023/03/12 10:26:07;;;;;;;35.60;4.90;;;10.80;99.90;;;;;;5051130;28;20199;-59
2023/03/12 10:28:44;;;;;;;36.27;6.10;;;12.20;99.90;;;;;;5034886;28;20224;-59
2023/03/12 10:31:20;;;;;;;46.03;5.73;;;12.20;99.90;;;;;;5050793;28;20181;-59
2023/03/12 10:33:57;;;;;;;32.80;5.10;;;12.20;99.90;;;;;;5050772;28;20165;-59
2023/03/12 10:36:44;;;;;;;43.67;5.77;;;12.70;99.90;;;;;;5050638;28;20231;-59
2023/03/12 10:39:18;;;;;;;35.83;5.03;;;12.40;99.90;;;;;;5051123;28;20620;-59
2023/03/12 10:41:46;;;;;;;41.10;5.67;;;12.30;99.90;;;;;;5050734;28;20624;-59
2023/03/12 10:44:23;;;;;;;35.53;5.40;;;12.40;99.90;;;;;;5050705;28;20227;-59
2023/03/12 10:47:02;;;;;;;33.07;5.50;;;13.00;99.90;;;;;;5054647;28;20238;-59
2023/03/12 10:49:31;;;;;;;34.80;5.27;;;13.10;99.90;;;;;;5054633;28;20200;-59
2023/03/12 10:52:17;;;;;;;46.07;6.73;;;13.50;99.90;;;;;;5054715;28;20196;-59
2023/03/12 10:54:45;;;;;;;25.57;4.67;;;13.40;99.90;;;;;;5054627;28;20723;-59
2023/03/12 10:57:14;;;;;;;31.70;5.60;;;13.90;99.90;;;;;;5036701;28;20266;-59
2023/03/12 10:59:42;;;;;;;26.40;4.83;;;13.70;99.90;;;;;;5054495;28;20173;-59
2023/03/12 11:02:53;;;;;;;34.08;5.43;;;14.40;99.90;;;;;;5054369;28;20663;-60
2023/03/12 11:05:23;;;;;;;32.97;4.93;;;14.70;99.90;;;;;;5050240;28;20575;-59
2023/03/12 11:07:49;;;;;;;33.20;5.70;;;15.40;99.90;;;;;;5054420;28;20165;-59
2023/03/12 11:10:31;;;;;;;23.40;4.68;;;14.70;99.90;;;;;;5054385;28;20703;-59
2023/03/12 11:13:04;;;;;;;33.35;5.47;;;15.00;99.90;;;;;;5054106;28;20196;-60
2023/03/12 11:15:41;;;;;;;23.60;3.90;;;14.30;99.90;;;;;;5054217;28;20197;-60
2023/03/12 11:18:29;;;;;;;24.02;3.55;;;15.00;99.90;;;;;;5054012;28;20181;-59
2023/03/12 11:21:14;;;;;;;35.60;4.78;;;14.90;99.90;;;;;;5054078;28;20566;-59
2023/03/12 11:24:05;;;;;;;23.85;4.43;;;15.20;99.90;;;;;;5054055;28;20161;-60
2023/03/12 11:26:36;;;;;;;30.42;4.40;;;15.30;99.90;;;;;;5043911;28;20190;-58
2023/03/12 11:29:09;;;;;;;25.92;4.55;;;16.40;99.90;;;;;;5054039;28;20181;-60
2023/03/12 11:31:41;;;;;;;31.20;5.00;;;14.90;99.90;;;;;;5053840;28;20166;-60
2023/03/12 11:34:23;;;;;;;29.52;4.47;;;15.60;99.90;;;;;;5053586;28;20197;-60
2023/03/12 11:37:14;;;;;;;30.92;4.55;;;15.50;99.90;;;;;;5053599;28;20219;-60
2023/03/12 11:40:11;;;;;;;29.05;4.38;;;15.60;99.90;;;;;;5053611;28;20345;-58
2023/03/12 11:42:43;;;;;;;22.85;4.57;;;15.90;99.90;;;;;;5047431;28;20209;-59
2023/03/12 11:45:17;;;;;;;35.88;5.43;;;16.00;99.90;;;;;;5053506;28;20169;-59
2023/03/12 11:47:58;;;;;;;28.73;5.40;;;16.30;99.90;;;;;;5053523;28;20551;-59
2023/03/12 11:50:24;;;;;;;27.05;4.13;;;16.50;99.90;;;;;;5053331;28;20232;-59
2023/03/12 11:53:26;;;;;;;20.58;4.15;;;16.50;99.90;;;;;;5053508;28;20648;-59
2023/03/12 11:56:03;;;;;;;29.17;4.70;;;19.00;99.90;;;;;;5052426;28;20737;-60
2023/03/12 11:59:03;;;;;;;22.80;3.78;;;17.30;99.90;;;;;;5053044;28;20183;-59
2023/03/12 12:01:52;;;;;;;26.30;4.80;;;15.90;99.90;;;;;;4982006;28;20258;-59
2023/03/12 12:04:29;;;;;;;28.00;5.43;;;15.80;99.90;;;;;;5053782;28;20196;-59
2023/03/12 12:07:07;;;;;;;24.38;4.43;;;15.90;99.90;;;;;;5053651;28;20187;-59
2023/03/12 12:09:53;;;;;;;26.88;5.03;;;16.90;99.90;;;;;;5053532;28;20165;-59
2023/03/12 12:12:42;;;;;;;27.60;4.88;;;17.00;99.90;;;;;;5053195;28;20226;-59
2023/03/12 12:15:48;;;;;;;32.70;4.80;;;19.00;99.90;;;;;;5014391;28;20178;-59
2023/03/12 12:18:31;;;;;;;18.80;3.60;;;16.10;99.90;;;;;;4972171;28;20192;-59
2023/03/12 12:21:15;;;;;;;25.88;4.03;;;15.30;99.90;;;;;;5048785;28;20181;-59
2023/03/12 12:23:49;;;;;;;28.50;4.28;;;15.90;99.90;;;;;;5052800;28;20176;-59
2023/03/12 12:26:32;;;;;;;24.92;3.97;;;16.20;99.90;;;;;;5052655;28;20203;-59
2023/03/12 12:29:30;;;;;;;21.98;3.47;;;15.80;99.90;;;;;;5052759;28;20165;-59
2023/03/12 12:31:57;;;;;;;30.63;5.25;;;15.00;99.90;;;;;;5052080;28;20184;-59
2023/03/12 12:34:33;;;;;;;28.00;3.78;;;14.70;99.90;;;;;;5052524;28;20165;-59
2023/03/12 12:37:24;;;;;;;22.67;4.05;;;14.80;99.90;;;;;;5052465;28;20205;-59
2023/03/12 12:40:20;;;;;;;24.20;3.50;;;15.00;99.90;;;;;;5034616;28;20239;-59
2023/03/12 12:43:00;;;;;;;26.83;4.05;;;14.90;99.90;;;;;;5052298;28;20543;-59
2023/03/12 12:45:27;;;;;;;30.85;3.75;;;14.80;99.90;;;;;;5052348;28;20169;-59
2023/03/12 12:47:59;;;;;;;31.08;3.88;;;15.10;99.90;;;;;;5052329;28;20197;-59
2023/03/12 12:50:30;;;;;;;19.77;3.20;;;15.10;99.90;;;;;;5034276;28;20181;-59
2023/03/12 12:53:22;;;;;;;16.38;2.72;;;14.60;99.90;;;;;;5052188;28;20652;-59